Time;durP1;ratioP1;P1;durP2;ratioP2;P2;SDS_P1;SDS_P2;PMS_P1;PMS_P2;Temp;Humidity;BMP_temperature;BMP_pressure;BME280_temperature;BME280_humidity;BME280_pressure;Samples;Min_cycle;Max_cycle;Signal;HPM_P1;HPM_P2
2022/11/08 00:17:01;;;;;;;3.90;2.77;;;;;;;4.03;100.00;97641.59;18573157;32;20102;-62
2022/11/08 00:27:07;;;;;;;4.17;3.00;;;;;;;4.09;100.00;97642.53;18572150;31;20484;-63
2022/11/08 00:37:10;;;;;;;4.63;2.70;;;;;;;4.11;100.00;97628.91;18557493;32;20413;-62
2022/11/08 00:47:12;;;;;;;3.70;2.20;;;;;;;4.15;100.00;97624.72;18571116;32;20068;-62
2022/11/08 00:57:15;;;;;;;5.37;4.10;;;;;;;4.22;100.00;97614.72;18570182;32;20048;-62
2022/11/08 01:07:17;;;;;;;3.10;2.57;;;;;;;4.25;100.00;97608.94;18569278;32;20044;-62
2022/11/08 01:17:20;;;;;;;4.60;2.30;;;;;;;4.31;100.00;97602.66;18554868;32;20053;-62
2022/11/08 01:27:23;;;;;;;3.53;2.27;;;;;;;4.48;100.00;97589.41;18547648;32;20095;-63
2022/11/08 01:37:25;;;;;;;3.60;2.43;;;;;;;4.52;100.00;97579.03;18568179;32;20056;-62
2022/11/08 01:47:28;;;;;;;5.53;2.00;;;;;;;4.51;100.00;97569.34;18567428;32;20045;-63
2022/11/08 01:57:38;;;;;;;2.70;1.83;;;;;;;4.52;100.00;97561.13;18566468;32;20112;-62
2022/11/08 02:07:40;;;;;;;5.30;2.20;;;;;;;4.69;100.00;97555.84;18566261;32;20077;-62
2022/11/08 02:17:43;;;;;;;5.47;2.07;;;;;;;4.81;100.00;97546.97;18564741;32;20053;-63
2022/11/08 02:27:45;;;;;;;3.23;2.40;;;;;;;5.02;100.00;97530.28;18564918;32;20468;-62
2022/11/08 02:37:47;;;;;;;4.30;2.30;;;;;;;5.09;100.00;97528.28;18550138;32;20117;-63
2022/11/08 02:47:49;;;;;;;5.30;2.40;;;;;;;5.06;100.00;97520.72;18563662;32;20120;-63
2022/11/08 02:57:52;;;;;;;3.90;2.30;;;;;;;4.90;100.00;97508.87;18563108;32;20052;-62
2022/11/08 03:07:54;;;;;;;5.03;2.60;;;;;;;4.84;100.00;97492.94;18548606;32;20067;-62
2022/11/08 03:17:59;;;;;;;6.27;3.17;;;;;;;4.82;100.00;97479.78;18555477;32;20106;-63
2022/11/08 03:28:03;;;;;;;6.07;3.03;;;;;;;4.92;100.00;97474.62;18561310;32;20098;-62
2022/11/08 03:38:05;;;;;;;4.43;2.97;;;;;;;5.02;100.00;97478.56;18547076;32;20088;-62
2022/11/08 03:48:07;;;;;;;5.30;3.43;;;;;;;4.94;100.00;97485.09;18533545;32;20075;-62
2022/11/08 03:58:12;;;;;;;5.10;2.83;;;;;;;5.09;100.00;97480.03;18560199;32;20080;-62
2022/11/08 04:08:16;;;;;;;5.90;3.20;;;;;;;5.24;100.00;97476.03;18560302;32;20044;-62
2022/11/08 04:28:41;;;;;;;5.13;2.93;;;;;;;5.16;100.00;97481.75;18559514;32;20083;-62
2022/11/08 04:38:49;;;;;;;3.47;2.70;;;;;;;5.22;100.00;97487.00;18532430;32;20041;-62
2022/11/08 04:48:57;;;;;;;6.40;3.17;;;;;;;5.11;100.00;97469.06;18571353;32;20058;-62
2022/11/08 04:59:00;;;;;;;6.43;3.50;;;;;;;5.12;100.00;97488.66;18570283;32;20049;-63
2022/11/08 05:09:02;;;;;;;4.43;3.27;;;;;;;5.35;100.00;97472.47;18563064;32;20060;-63
2022/11/08 05:19:05;;;;;;;4.80;3.60;;;;;;;5.42;100.00;97483.03;18569139;32;20053;-62
2022/11/08 05:29:15;;;;;;;5.33;2.93;;;;;;;5.46;100.00;97470.78;18481955;32;20073;-62
2022/11/08 05:39:17;;;;;;;3.23;2.60;;;;;;;5.27;100.00;97456.75;18493217;32;20130;-62
2022/11/08 05:49:20;;;;;;;4.00;2.40;;;;;;;4.98;100.00;97469.38;18364365;32;20374;-62
2022/11/08 05:59:22;;;;;;;2.80;2.17;;;;;;;4.65;100.00;97501.13;18363750;32;20098;-62
2022/11/08 06:09:25;;;;;;;3.23;2.30;;;;;;;4.37;100.00;97493.81;18363350;32;20081;-62
2022/11/08 06:19:27;;;;;;;3.63;2.27;;;;;;;4.17;100.00;97494.19;18471201;32;20113;-65
2022/11/08 06:29:30;;;;;;;3.97;2.50;;;;;;;4.11;100.00;97511.16;18498673;32;20058;-62
2022/11/08 06:39:33;;;;;;;3.17;2.17;;;;;;;4.07;100.00;97525.03;18499146;32;20052;-62
2022/11/08 06:49:37;;;;;;;2.87;2.00;;;;;;;4.04;100.00;97522.81;18498727;32;20057;-62
2022/11/08 06:59:41;;;;;;;3.23;1.97;;;;;;;4.12;100.00;97535.03;18519233;32;20412;-62
2022/11/08 07:09:44;;;;;;;3.33;2.20;;;;;;;4.20;100.00;97529.31;18562008;32;20066;-62
2022/11/08 07:19:47;;;;;;;3.57;2.10;;;;;;;4.45;100.00;97538.19;18547683;32;20141;-63
2022/11/08 07:29:50;;;;;;;2.23;1.83;;;;;;;4.65;100.00;97533.28;18561393;32;20072;-62
2022/11/08 07:39:59;;;;;;;4.13;2.37;;;;;;;4.91;100.00;97520.41;18560998;32;20334;-62
2022/11/08 07:50:11;;;;;;;3.47;2.13;;;;;;;5.19;100.00;97522.28;18560281;32;20045;-62
2022/11/08 08:00:20;;;;;;;3.43;2.20;;;;;;;5.53;100.00;97524.25;18560216;32;20097;-62
2022/11/08 08:10:27;;;;;;;2.83;1.80;;;;;;;5.86;100.00;97536.91;18559734;32;20049;-62
2022/11/08 08:20:37;;;;;;;2.60;1.87;;;;;;;6.41;100.00;97527.34;18568493;32;20436;-62
2022/11/08 08:30:51;;;;;;;2.30;1.77;;;;;;;6.98;100.00;97546.91;18572422;32;20068;-63
2022/11/08 08:41:04;;;;;;;4.97;3.23;;;;;;;7.55;100.00;97545.69;18568759;32;20069;-63
2022/11/08 08:51:09;;;;;;;4.87;2.80;;;;;;;8.06;100.00;97564.19;18567834;32;20391;-63
2022/11/08 09:01:14;;;;;;;2.73;2.00;;;;;;;8.46;100.00;97573.69;18418351;32;20125;-62
2022/11/08 09:11:39;;;;;;;4.23;2.50;;;;;;;8.79;100.00;97574.44;18417445;32;20077;-63
2022/11/08 09:21:44;;;;;;;3.67;2.87;;;;;;;9.09;100.00;97572.97;18430497;32;20336;-62
2022/11/08 09:31:48;;;;;;;2.70;1.80;;;;;;;9.13;100.00;97584.06;18480004;32;20094;-62
2022/11/08 09:42:07;;;;;;;;;;;;;;;8.77;100.00;97581.97;18503081;32;20053;-63
2022/11/08 09:52:21;;;;;;;4.00;2.57;;;;;;;8.55;100.00;97583.97;18502529;32;20269;-63
2022/11/08 10:02:33;;;;;;;3.83;2.70;;;;;;;8.82;100.00;97589.28;18500247;32;20060;-63
2022/11/08 10:12:59;;;;;;;6.40;3.33;;;;;;;9.35;100.00;97585.78;18500274;32;20067;-63
2022/11/08 10:23:21;;;;;;;4.33;3.13;;;;;;;9.60;100.00;97576.94;18500498;32;20094;-63
2022/11/08 10:33:34;;;;;;;5.40;3.03;;;;;;;9.79;100.00;97564.56;18499716;32;20481;-63
2022/11/08 10:43:47;;;;;;;4.80;2.90;;;;;;;9.88;100.00;97572.13;18497174;32;20075;-63
2022/11/08 10:53:54;;;;;;;4.37;3.07;;;;;;;10.12;100.00;97558.94;18498669;32;20052;-62
2022/11/08 11:04:28;;;;;;;3.95;2.35;;;;;;;10.58;100.00;97558.12;18560381;32;20045;-63
2022/11/08 11:14:40;;;;;;;3.58;2.00;;;;;;;11.12;100.00;97543.12;18562225;32;20040;-62
2022/11/08 11:24:50;;;;;;;5.37;2.70;;;;;;;11.64;99.10;97535.56;18547284;32;20100;-63
2022/11/08 11:35:15;;;;;;;2.75;1.90;;;;;;;12.05;97.00;97546.13;18549652;32;20081;-63
2022/11/08 11:45:31;;;;;;;3.95;2.70;;;;;;;11.80;93.26;97528.94;18560754;32;20109;-62
2022/11/08 11:56:00;;;;;;;4.80;2.87;;;;;;;11.55;92.25;97510.16;18546716;32;20429;-63
2022/11/08 12:06:11;;;;;;;7.80;3.58;;;;;;;11.57;93.00;97503.38;18560260;32;20053;-63
2022/11/08 12:16:36;;;;;;;5.60;3.03;;;;;;;11.63;90.86;97487.88;18542236;32;20086;-63
2022/11/08 12:26:57;;;;;;;7.57;2.87;;;;;;;11.93;89.79;97475.22;18539408;32;20120;-63
2022/11/08 12:37:34;;;;;;;4.15;2.80;;;;;;;12.31;87.42;97465.41;18544756;32;20096;-63
2022/11/08 12:47:55;;;;;;;2.97;2.40;;;;;;;12.51;86.28;97467.12;18544776;32;20364;-63
2022/11/08 12:58:22;;;;;;;4.25;2.33;;;;;;;12.49;85.97;97444.88;18543950;32;20080;-62
2022/11/08 13:08:50;;;;;;;5.75;2.47;;;;;;;12.45;83.70;97441.13;18568941;32;20464;-63
2022/11/08 13:19:00;;;;;;;4.07;2.00;;;;;;;12.40;85.59;97421.41;18569312;32;20124;-63
2022/11/08 13:29:17;;;;;;;2.97;1.52;;;;;;;12.38;83.96;97410.84;18556586;32;20527;-63
2022/11/08 13:39:43;;;;;;;3.77;2.07;;;;;;;12.36;86.04;97404.88;18568003;32;20049;-63
2022/11/08 13:49:48;;;;;;;3.55;1.75;;;;;;;12.42;85.81;97401.03;18567669;32;20068;-62
2022/11/08 13:59:56;;;;;;;5.10;2.20;;;;;;;12.63;84.53;97398.09;18565857;32;20047;-63
2022/11/08 14:10:31;;;;;;;2.50;1.77;;;;;;;12.83;85.31;97386.97;18559747;32;20068;-63
2022/11/08 14:20:40;;;;;;;4.32;2.00;;;;;;;12.88;84.62;97386.91;18565529;32;20081;-63
2022/11/08 14:30:51;;;;;;;5.37;2.10;;;;;;;12.96;85.12;97377.28;18565117;32;20068;-62
2022/11/08 14:41:01;;;;;;;3.33;1.62;;;;;;;12.98;85.72;97371.59;18564477;32;20040;-63
2022/11/08 14:51:05;;;;;;;2.72;2.10;;;;;;;12.95;86.86;97361.31;18549386;32;20067;-63
2022/11/08 15:01:11;;;;;;;4.03;1.90;;;;;;;12.90;86.82;97373.06;18563172;32;20111;-62
2022/11/08 15:11:27;;;;;;;3.30;1.90;;;;;;;12.77;88.56;97371.06;18561710;32;20096;-63
2022/11/08 15:21:31;;;;;;;3.30;1.75;;;;;;;12.44;90.95;97374.44;18535643;32;20064;-62
2022/11/08 15:31:41;;;;;;;2.70;1.83;;;;;;;12.12;93.23;97378.59;18546740;32;20133;-63
2022/11/08 15:41:58;;;;;;;3.47;2.08;;;;;;;11.84;95.22;97378.28;18561341;32;20044;-62
2022/11/08 15:52:02;;;;;;;4.53;2.10;;;;;;;11.48;97.86;97381.31;18533592;32;20105;-63
2022/11/08 16:02:12;;;;;;;4.13;2.13;;;;;;;11.09;99.86;97378.63;18533151;32;20089;-63
2022/11/08 16:12:16;;;;;;;4.30;1.80;;;;;;;10.67;100.00;97396.94;18421247;32;20489;-62
2022/11/08 16:22:20;;;;;;;3.20;2.13;;;;;;;10.25;100.00;97393.56;18420914;32;20073;-62
2022/11/08 16:32:24;;;;;;;5.63;2.63;;;;;;;9.83;100.00;97395.53;18420849;32;20070;-62
2022/11/08 16:42:27;;;;;;;3.83;2.37;;;;;;;9.46;100.00;97383.12;18451172;32;20440;-62
2022/11/08 16:52:31;;;;;;;5.07;2.73;;;;;;;9.18;100.00;97375.53;18564405;32;20079;-62
2022/11/08 17:02:36;;;;;;;4.67;2.37;;;;;;;8.87;100.00;97376.31;18570299;32;20048;-62
2022/11/08 17:12:39;;;;;;;4.67;2.53;;;;;;;8.57;100.00;97366.25;18569752;32;20137;-62
2022/11/08 17:22:44;;;;;;;4.43;2.50;;;;;;;8.28;100.00;97363.94;18542418;32;20493;-62
2022/11/08 17:32:47;;;;;;;5.63;3.37;;;;;;;8.09;100.00;97387.81;18568562;32;20061;-62
2022/11/08 17:42:51;;;;;;;5.27;3.30;;;;;;;7.98;100.00;97397.72;18553792;32;20475;-62
2022/11/08 17:52:54;;;;;;;9.30;5.10;;;;;;;7.91;100.00;97397.16;18539948;32;20052;-62
2022/11/08 18:02:57;;;;;;;5.77;3.80;;;;;;;7.94;100.00;97413.56;18566898;32;20089;-63
2022/11/08 18:12:59;;;;;;;7.80;5.00;;;;;;;7.78;100.00;97399.22;18566566;32;20161;-62
2022/11/08 18:23:02;;;;;;;7.97;4.17;;;;;;;7.71;100.00;97395.91;18565567;32;20436;-62
2022/11/08 18:33:05;;;;;;;5.07;3.40;;;;;;;7.69;100.00;97386.47;18564984;32;20136;-62
2022/11/08 18:43:09;;;;;;;4.10;3.00;;;;;;;7.84;100.00;97375.81;18557776;32;20743;-62
2022/11/08 18:53:11;;;;;;;4.37;2.60;;;;;;;7.98;100.00;97382.38;18563979;32;20163;-63
2022/11/08 19:03:14;;;;;;;4.00;3.07;;;;;;;8.10;100.00;97386.75;18562852;32;20349;-62
2022/11/08 19:13:19;;;;;;;4.90;3.00;;;;;;;8.20;100.00;97380.63;18562503;32;20064;-62
2022/11/08 19:23:22;;;;;;;6.68;4.43;;;;;;;8.33;100.00;97380.13;18562080;32;20104;-62
2022/11/08 19:33:27;;;;;;;8.43;5.20;;;;;;;8.34;100.00;97392.53;18534839;32;20057;-63
2022/11/08 19:43:30;;;;;;;;;;;;;;;8.32;100.00;97389.28;18547265;32;20073;-62
2022/11/08 19:53:33;;;;;;;7.13;4.60;;;;;;;8.28;100.00;97380.91;18560888;32;20011;-62
2022/11/08 20:03:37;;;;;;;7.20;4.60;;;;;;;8.16;100.00;97390.28;18560313;32;20060;-63
2022/11/08 20:13:40;;;;;;;11.73;6.40;;;;;;;8.02;100.00;97393.44;18566919;32;20095;-62
2022/11/08 20:23:43;;;;;;;10.37;7.33;;;;;;;7.91;100.00;97397.94;18572918;32;20088;-62
2022/11/08 20:33:48;;;;;;;7.20;5.40;;;;;;;7.87;100.00;97396.03;18538648;32;20045;-62
2022/11/08 20:43:51;;;;;;;8.95;5.37;;;;;;;7.90;100.00;97396.31;18572305;32;20056;-63
2022/11/08 20:53:55;;;;;;;7.23;4.77;;;;;;;7.82;100.00;97390.62;18571099;32;20065;-63
2022/11/08 21:03:57;;;;;;;6.20;4.20;;;;;;;7.69;100.00;97395.37;18570315;32;20048;-63
2022/11/08 21:14:01;;;;;;;7.87;4.83;;;;;;;7.61;100.00;97399.34;18569918;32;20124;-62
2022/11/08 21:24:05;;;;;;;10.03;5.20;;;;;;;7.53;100.00;97390.94;18568883;32;20052;-62
2022/11/08 21:34:08;;;;;;;10.33;4.60;;;;;;;7.44;100.00;97383.34;18568632;32;20053;-63
2022/11/08 21:44:10;;;;;;;13.70;6.13;;;;;;;7.40;100.00;97381.41;18554195;32;20093;-63
2022/11/08 21:54:14;;;;;;;9.47;5.30;;;;;;;7.34;100.00;97369.00;18567584;32;20048;-63
2022/11/08 22:04:17;;;;;;;11.77;5.77;;;;;;;7.26;100.00;97371.09;18566805;32;20040;-63
2022/11/08 22:14:19;;;;;;;10.63;6.20;;;;;;;7.25;100.00;97368.62;18566505;32;20099;-63
2022/11/08 22:24:22;;;;;;;8.43;4.57;;;;;;;7.19;100.00;97380.44;18559062;32;20075;-62
2022/11/08 22:34:25;;;;;;;6.67;3.93;;;;;;;7.07;100.00;97384.09;18564221;32;20108;-63
2022/11/08 22:44:27;;;;;;;8.27;4.80;;;;;;;6.97;100.00;97386.66;18425373;32;20079;-63
2022/11/08 22:54:30;;;;;;;8.67;5.50;;;;;;;6.88;100.00;97390.88;18412074;32;20111;-63
2022/11/08 23:04:33;;;;;;;12.33;7.73;;;;;;;6.88;100.00;97393.56;18424209;32;20113;-62
2022/11/08 23:24:56;;;;;;;10.63;6.33;;;;;;;6.79;100.00;97383.25;18487760;32;20527;-63
2022/11/08 23:34:58;;;;;;;6.73;4.57;;;;;;;6.76;100.00;97383.78;18487205;32;20091;-62
2022/11/08 23:45:01;;;;;;;7.00;4.40;;;;;;;6.81;100.00;97385.72;18486503;32;20072;-62
2022/11/08 23:55:04;;;;;;;5.60;3.43;;;;;;;6.90;100.00;97388.75;18494353;32;20053;-63
